createdAt,value
2022-10-05T00:01:04.684Z,6.33
2022-10-05T00:06:11.642Z,6.35
2022-10-05T00:11:18.643Z,6.81
2022-10-05T00:16:25.582Z,6.61
2022-10-05T00:21:32.536Z,6.15
2022-10-05T00:26:39.471Z,6.10
2022-10-05T00:31:46.621Z,5.90
2022-10-05T00:36:53.436Z,6.28
2022-10-05T00:42:00.661Z,5.66
2022-10-05T00:47:07.563Z,5.17
2022-10-05T00:52:14.782Z,5.10
2022-10-05T00:57:21.702Z,5.17
2022-10-05T01:02:33.003Z,5.15
2022-10-05T01:07:35.280Z,5.34
2022-10-05T01:12:42.391Z,4.88
2022-10-05T01:17:49.322Z,4.64
2022-10-05T01:22:56.437Z,5.24
2022-10-05T01:28:03.447Z,4.41
2022-10-05T01:33:10.563Z,4.02
2022-10-05T01:38:17.538Z,3.94
2022-10-05T01:43:24.663Z,4.45
2022-10-05T01:48:31.584Z,4.26
2022-10-05T01:53:38.809Z,4.07
2022-10-05T01:58:45.778Z,4.50
2022-10-05T02:03:52.750Z,4.25
2022-10-05T02:08:59.783Z,4.26
2022-10-05T02:14:06.821Z,4.04
2022-10-05T02:19:13.689Z,3.82
2022-10-05T02:24:20.722Z,3.70
2022-10-05T02:29:27.664Z,3.62
2022-10-05T02:34:34.746Z,3.40
2022-10-05T02:39:41.675Z,3.62
2022-10-05T02:44:48.847Z,3.50
2022-10-05T02:49:55.773Z,3.21
2022-10-05T02:55:03.001Z,3.17
2022-10-05T03:00:09.910Z,3.17
2022-10-05T03:05:16.956Z,3.48
2022-10-05T03:10:23.878Z,3.22
2022-10-05T03:15:30.982Z,3.11
2022-10-05T03:20:37.911Z,3.02
2022-10-05T03:25:44.908Z,3.29
2022-10-05T03:30:51.866Z,3.09
2022-10-05T03:35:58.984Z,3.16
2022-10-05T03:41:05.886Z,3.08
2022-10-05T03:46:12.937Z,2.70
2022-10-05T03:51:19.848Z,3.07
2022-10-05T03:56:26.864Z,2.76
2022-10-05T04:01:33.782Z,2.86
2022-10-05T04:06:40.825Z,2.81
2022-10-05T04:11:47.961Z,2.79
2022-10-05T04:16:54.972Z,2.50
2022-10-05T04:22:01.873Z,2.34
2022-10-05T04:27:08.969Z,2.54
2022-10-05T04:32:15.986Z,2.26
2022-10-05T04:37:23.062Z,2.61
2022-10-05T04:42:29.959Z,2.22
2022-10-05T04:47:37.070Z,2.77
2022-10-05T04:52:44.025Z,2.66
2022-10-05T04:57:51.105Z,2.57
2022-10-05T05:02:58.079Z,2.59
2022-10-05T05:08:05.109Z,2.33
2022-10-05T05:13:12.047Z,2.70
2022-10-05T05:18:19.053Z,2.65
2022-10-05T05:23:25.988Z,2.46
2022-10-05T05:28:33.511Z,2.45
2022-10-05T05:33:40.725Z,2.33
2022-10-05T05:38:47.783Z,2.32
2022-10-05T05:43:54.782Z,2.13
2022-10-05T05:49:01.854Z,2.12
2022-10-05T05:54:08.762Z,2.31
2022-10-05T05:59:16.004Z,2.40
2022-10-05T06:04:22.924Z,3.27
2022-10-05T06:09:29.991Z,3.53
2022-10-05T06:14:36.957Z,3.40
2022-10-05T06:19:44.124Z,3.17
2022-10-05T06:24:51.052Z,3.69
2022-10-05T06:29:58.285Z,3.84
2022-10-05T06:35:05.190Z,3.77
2022-10-05T06:40:12.281Z,3.29
2022-10-05T06:45:19.213Z,3.21
2022-10-05T06:50:26.436Z,3.22
2022-10-05T06:55:33.310Z,3.75
2022-10-05T07:00:40.345Z,3.40
2022-10-05T07:05:47.288Z,3.65
2022-10-05T07:10:54.380Z,4.29
2022-10-05T07:16:01.344Z,3.65
2022-10-05T07:21:08.450Z,3.91
2022-10-05T07:26:15.358Z,4.04
2022-10-05T07:31:22.454Z,4.46
2022-10-05T07:36:29.268Z,4.40
2022-10-05T07:41:36.598Z,3.97
2022-10-05T07:46:43.608Z,3.90
2022-10-05T07:51:50.589Z,3.34
2022-10-05T07:56:57.492Z,3.79
2022-10-05T08:02:04.769Z,3.66
2022-10-05T08:07:11.695Z,3.60
2022-10-05T08:12:18.639Z,3.61
2022-10-05T08:17:26.368Z,3.18
2022-10-05T08:22:32.097Z,3.26
2022-10-05T08:27:39.020Z,2.98
2022-10-05T08:32:46.116Z,2.30
2022-10-05T08:37:53.012Z,4.87
2022-10-05T08:43:00.054Z,6.56
2022-10-05T08:48:07.028Z,3.82
2022-10-05T08:53:14.076Z,3.97
2022-10-05T08:58:20.970Z,2.94
2022-10-05T09:03:32.167Z,3.39
2022-10-05T09:08:34.599Z,5.06
2022-10-05T09:13:41.650Z,9.16
2022-10-05T09:18:48.620Z,4.81
2022-10-05T09:23:55.748Z,3.81
2022-10-05T09:29:02.642Z,2.31
2022-10-05T09:34:09.771Z,2.74
2022-10-05T09:39:16.767Z,3.73
2022-10-05T09:44:23.869Z,1.47
2022-10-05T09:49:30.812Z,2.96
2022-10-05T09:54:37.948Z,1.28
2022-10-05T09:59:44.961Z,1.70
2022-10-05T10:04:52.116Z,1.39
2022-10-05T10:09:59.167Z,1.05
2022-10-05T10:15:06.296Z,1.03
2022-10-05T10:20:13.360Z,1.13
2022-10-05T10:25:20.476Z,1.19
2022-10-05T10:30:27.782Z,1.61
2022-10-05T10:35:34.056Z,1.34
2022-10-05T10:40:41.002Z,1.70
2022-10-05T10:45:48.101Z,1.54
2022-10-05T10:50:55.285Z,1.45
2022-10-05T10:56:02.446Z,1.45
2022-10-05T11:01:09.622Z,1.72
2022-10-05T11:06:16.696Z,1.55
2022-10-05T11:11:23.732Z,1.61
2022-10-05T11:16:30.901Z,1.33
2022-10-05T11:21:37.844Z,1.59
2022-10-05T11:26:44.985Z,1.73
2022-10-05T11:31:52.567Z,1.46
2022-10-05T11:36:58.719Z,1.37
2022-10-05T11:42:05.741Z,1.55
2022-10-05T11:47:13.012Z,1.39
2022-10-05T11:52:19.937Z,1.50
2022-10-05T11:57:27.145Z,1.34
2022-10-05T12:02:34.169Z,1.60
2022-10-05T12:07:41.407Z,1.69
2022-10-05T12:12:48.372Z,1.63
2022-10-05T12:17:55.469Z,2.26
2022-10-05T12:23:02.468Z,1.93
2022-10-05T12:28:09.563Z,2.21
2022-10-05T12:33:16.372Z,1.97
2022-10-05T12:38:23.352Z,1.98
2022-10-05T12:43:30.337Z,2.11
2022-10-05T12:48:37.383Z,2.04
2022-10-05T12:53:44.323Z,1.61
2022-10-05T12:58:51.343Z,1.53
2022-10-05T13:03:58.243Z,1.59
2022-10-05T13:09:05.362Z,1.52
2022-10-05T13:14:12.301Z,1.89
2022-10-05T13:19:19.602Z,2.39
2022-10-05T13:24:26.176Z,2.27
2022-10-05T13:29:33.250Z,2.93
2022-10-05T13:34:40.217Z,4.25
2022-10-05T13:39:47.467Z,4.23
2022-10-05T13:44:54.356Z,8.00
2022-10-05T13:50:01.385Z,13.05
2022-10-05T13:55:08.252Z,10.87
2022-10-05T14:00:15.405Z,8.63
2022-10-05T14:05:22.321Z,11.42
2022-10-05T14:10:29.437Z,24.16
2022-10-05T14:15:41.309Z,6.18
2022-10-05T14:20:42.998Z,7.68
2022-10-05T14:25:49.954Z,6.25
2022-10-05T14:30:59.197Z,6.65
2022-10-05T14:36:03.687Z,5.85
2022-10-05T14:41:10.785Z,6.50
2022-10-05T14:46:20.669Z,7.38
2022-10-05T14:51:24.506Z,7.36
2022-10-05T14:56:31.496Z,8.76
2022-10-05T15:01:38.592Z,8.79
2022-10-05T15:06:45.473Z,8.08
2022-10-05T15:11:52.858Z,8.91
2022-10-05T15:16:59.855Z,9.33
2022-10-05T15:22:06.951Z,9.03
2022-10-05T15:27:14.006Z,8.81
2022-10-05T15:32:21.231Z,10.10
2022-10-05T15:37:28.364Z,9.27
2022-10-05T15:42:35.790Z,9.27
2022-10-05T15:47:42.809Z,8.92
2022-10-05T15:52:50.334Z,9.05
2022-10-05T15:57:59.885Z,9.24
2022-10-05T16:03:07.088Z,7.88
2022-10-05T16:08:14.066Z,5.95
2022-10-05T16:13:21.149Z,5.58
2022-10-05T16:18:28.120Z,4.93
2022-10-05T16:23:35.229Z,3.93
2022-10-05T16:28:42.258Z,2.92
2022-10-05T16:33:49.476Z,2.41
2022-10-05T16:38:56.409Z,2.45
2022-10-05T16:44:03.514Z,4.68
2022-10-05T16:49:10.493Z,2.09
2022-10-05T16:54:17.632Z,2.05
2022-10-05T16:59:24.540Z,2.01
2022-10-05T17:04:31.830Z,1.62
2022-10-05T17:09:38.817Z,1.74
2022-10-05T17:14:45.945Z,1.69
2022-10-05T17:19:52.936Z,1.93
2022-10-05T17:25:00.028Z,1.75
2022-10-05T17:30:07.091Z,1.74
2022-10-05T17:35:18.213Z,1.91
2022-10-05T17:40:25.134Z,2.49
2022-10-05T17:45:27.738Z,2.30
2022-10-05T17:50:34.671Z,2.58
2022-10-05T17:55:41.767Z,2.87
2022-10-05T18:00:48.846Z,2.53
2022-10-05T18:05:55.909Z,2.71
2022-10-05T18:11:02.972Z,2.39
2022-10-05T18:16:10.057Z,2.44
2022-10-05T18:21:16.979Z,2.10
2022-10-05T18:26:23.998Z,1.81
2022-10-05T18:31:31.005Z,2.28
2022-10-05T18:36:38.273Z,3.29
2022-10-05T18:41:44.930Z,3.44
2022-10-05T18:46:52.253Z,3.32
2022-10-05T18:51:59.348Z,3.12
2022-10-05T18:57:06.406Z,2.89
2022-10-05T19:02:13.509Z,2.61
2022-10-05T19:07:20.699Z,2.79
2022-10-05T19:12:27.616Z,2.49
2022-10-05T19:17:34.692Z,2.63
2022-10-05T19:22:41.701Z,2.46
2022-10-05T19:27:51.978Z,2.44
2022-10-05T19:32:55.364Z,2.12
2022-10-05T19:38:02.758Z,2.01
2022-10-05T19:43:09.714Z,2.39
2022-10-05T19:48:16.757Z,2.39
2022-10-05T19:53:23.760Z,2.44
2022-10-05T19:58:31.411Z,2.40
2022-10-05T20:03:37.382Z,2.16
2022-10-05T20:08:44.518Z,1.85
2022-10-05T20:13:51.512Z,1.74
2022-10-05T20:18:58.670Z,1.50
2022-10-05T20:24:05.723Z,1.62
2022-10-05T20:29:12.860Z,1.59
2022-10-05T20:34:19.933Z,1.48
2022-10-05T20:39:27.102Z,1.42
2022-10-05T20:44:34.020Z,1.25
2022-10-05T20:49:41.331Z,1.42
2022-10-05T20:54:48.297Z,0.90
2022-10-05T20:59:55.340Z,0.93
2022-10-05T21:05:02.347Z,0.95
2022-10-05T21:10:09.465Z,0.86
2022-10-05T21:15:16.400Z,0.88
2022-10-05T21:20:23.590Z,0.72
2022-10-05T21:25:30.522Z,0.78
2022-10-05T21:30:37.602Z,0.68
2022-10-05T21:35:44.699Z,0.79
2022-10-05T21:40:51.758Z,0.58
2022-10-05T21:45:58.744Z,0.50
2022-10-05T21:51:05.820Z,0.35
2022-10-05T21:56:13.193Z,0.43
2022-10-05T22:01:22.816Z,0.50
2022-10-05T22:06:26.958Z,0.39
2022-10-05T22:11:34.085Z,0.42
2022-10-05T22:16:41.132Z,0.44
2022-10-05T22:21:48.091Z,0.41
2022-10-05T22:26:54.978Z,0.55
2022-10-05T22:32:02.104Z,0.54
2022-10-05T22:37:09.082Z,0.45
2022-10-05T22:42:16.272Z,0.75
2022-10-05T22:47:23.222Z,0.61
2022-10-05T22:52:30.324Z,0.62
2022-10-05T22:57:37.252Z,0.69
2022-10-05T23:02:44.426Z,0.42
2022-10-05T23:07:51.306Z,0.48
2022-10-05T23:13:00.794Z,0.50
2022-10-05T23:18:04.921Z,0.43
2022-10-05T23:23:11.964Z,0.34
2022-10-05T23:28:18.945Z,0.33
2022-10-05T23:33:25.908Z,0.36
2022-10-05T23:38:32.818Z,0.45
2022-10-05T23:43:39.856Z,0.35
2022-10-05T23:48:46.833Z,0.41
2022-10-05T23:53:53.872Z,0.41
2022-10-05T23:59:00.824Z,0.42
